Time;durP1;ratioP1;P1;durP2;ratioP2;P2;SDS_P1;SDS_P2;PMS_P1;PMS_P2;Temp;Humidity;BMP_temperature;BMP_pressure;BME280_temperature;BME280_humidity;BME280_pressure;Samples;Min_cycle;Max_cycle;Signal;HPM_P1;HPM_P2
2021/05/08 00:01:52;;;;;;;14.80;11.63;;;5.80;77.60;;;;;;5085502;28;20195;-80
2021/05/08 00:04:20;;;;;;;17.05;11.60;;;5.80;76.50;;;;;;5082734;28;20202;-80
2021/05/08 00:06:48;;;;;;;19.30;10.95;;;5.70;76.10;;;;;;5086269;28;21010;-79
2021/05/08 00:09:16;;;;;;;16.08;9.20;;;5.70;76.30;;;;;;5069687;28;20261;-79
2021/05/08 00:11:44;;;;;;;13.65;8.90;;;5.80;77.00;;;;;;5070635;28;20225;-80
2021/05/08 00:14:11;;;;;;;11.45;9.35;;;5.90;76.60;;;;;;5070226;28;20199;-79
2021/05/08 00:16:37;;;;;;;11.68;9.70;;;5.80;75.40;;;;;;5070661;28;20234;-80
2021/05/08 00:19:04;;;;;;;13.30;9.80;;;5.90;75.80;;;;;;5070450;28;20361;-80
2021/05/08 00:21:31;;;;;;;13.32;10.50;;;5.90;75.80;;;;;;5070356;28;20849;-80
2021/05/08 00:23:57;;;;;;;10.93;9.63;;;6.00;75.90;;;;;;5071550;28;20665;-80
2021/05/08 00:26:24;;;;;;;11.90;9.68;;;5.90;76.50;;;;;;5076032;28;20529;-81
2021/05/08 00:28:52;;;;;;;10.93;8.82;;;6.00;77.50;;;;;;5079929;28;20238;-79
2021/05/08 00:31:19;;;;;;;12.10;9.50;;;5.90;76.20;;;;;;5090692;28;20248;-80
2021/05/08 00:33:45;;;;;;;11.02;8.63;;;5.90;75.90;;;;;;5081175;28;20229;-80
2021/05/08 00:36:11;;;;;;;9.27;8.27;;;5.80;75.10;;;;;;5069983;28;20210;-80
2021/05/08 00:38:38;;;;;;;12.35;7.55;;;5.60;75.50;;;;;;5071478;28;20257;-79
2021/05/08 00:41:04;;;;;;;9.57;7.65;;;5.70;76.90;;;;;;5090308;28;20675;-80
2021/05/08 00:43:32;;;;;;;8.80;7.63;;;5.80;76.10;;;;;;5082267;28;20589;-79
2021/05/08 00:45:59;;;;;;;8.65;7.75;;;5.80;76.20;;;;;;5069967;28;20195;-80
2021/05/08 00:48:28;;;;;;;8.82;7.63;;;5.70;75.80;;;;;;5080156;28;20238;-80
2021/05/08 00:50:54;;;;;;;8.20;7.43;;;5.60;76.60;;;;;;5071496;28;20680;-80
2021/05/08 00:53:21;;;;;;;9.73;7.60;;;5.20;78.20;;;;;;5078375;28;20230;-80
2021/05/08 00:55:48;;;;;;;7.85;7.05;;;5.30;79.70;;;;;;5074826;28;20971;-79
2021/05/08 00:58:14;;;;;;;7.80;7.10;;;5.20;79.80;;;;;;5077889;28;20649;-79
2021/05/08 01:00:41;;;;;;;10.95;7.45;;;5.30;79.40;;;;;;5088627;28;20218;-80
2021/05/08 01:03:09;;;;;;;9.02;8.10;;;5.40;79.00;;;;;;5090170;28;20203;-80
2021/05/08 01:05:39;;;;;;;8.95;8.05;;;5.50;78.70;;;;;;5089579;28;20782;-80
2021/05/08 01:08:06;;;;;;;9.10;7.90;;;5.50;77.90;;;;;;5088549;28;20191;-80
2021/05/08 01:10:36;;;;;;;7.68;6.88;;;5.50;78.70;;;;;;5070383;28;20240;-80
2021/05/08 01:13:06;;;;;;;8.18;7.03;;;5.50;77.70;;;;;;5089445;28;20590;-79
2021/05/08 01:15:33;;;;;;;11.88;7.82;;;5.40;77.40;;;;;;5085489;28;20198;-80
2021/05/08 01:18:02;;;;;;;7.20;6.45;;;5.30;77.30;;;;;;5063823;28;20207;-80
2021/05/08 01:20:30;;;;;;;9.65;8.63;;;5.30;77.70;;;;;;5065767;28;20198;-80
2021/05/08 01:22:58;;;;;;;9.20;8.25;;;5.20;77.60;;;;;;5069820;28;20206;-80
2021/05/08 01:25:28;;;;;;;9.15;7.40;;;5.20;77.70;;;;;;5075663;28;20595;-80
2021/05/08 01:27:58;;;;;;;8.87;8.10;;;5.20;78.20;;;;;;5085861;28;20554;-80
2021/05/08 01:30:28;;;;;;;8.20;7.50;;;5.20;78.30;;;;;;5071314;28;20661;-80
2021/05/08 01:32:55;;;;;;;7.85;7.15;;;5.30;78.20;;;;;;5083466;28;20198;-80
2021/05/08 01:35:23;;;;;;;9.40;8.50;;;5.40;77.70;;;;;;5069794;28;20195;-80
2021/05/08 01:37:57;;;;;;;8.73;7.93;;;5.40;77.60;;;;;;5074682;28;20202;-80
2021/05/08 01:40:31;;;;;;;11.15;7.32;;;5.20;77.80;;;;;;5086644;28;20206;-80
2021/05/08 01:42:58;;;;;;;10.20;7.53;;;5.10;77.80;;;;;;5072967;28;20195;-80
2021/05/08 01:45:26;;;;;;;9.88;8.40;;;5.20;78.20;;;;;;5088035;28;20540;-79
2021/05/08 01:47:53;;;;;;;9.77;8.57;;;5.20;78.10;;;;;;5074586;28;20187;-79
2021/05/08 01:50:23;;;;;;;11.38;8.75;;;5.20;77.80;;;;;;5080073;28;20275;-80
2021/05/08 01:52:51;;;;;;;8.55;7.68;;;5.20;78.00;;;;;;5072811;28;20679;-80
2021/05/08 01:55:20;;;;;;;10.35;7.82;;;5.20;78.10;;;;;;5075041;28;20248;-80
2021/05/08 01:57:51;;;;;;;10.48;7.40;;;5.20;78.00;;;;;;5073762;28;20211;-80
2021/05/08 02:00:21;;;;;;;9.13;8.07;;;5.10;78.10;;;;;;5081072;28;20312;-80
2021/05/08 02:02:50;;;;;;;8.93;8.02;;;5.20;78.10;;;;;;5089764;28;20573;-79
2021/05/08 02:05:18;;;;;;;8.45;7.70;;;5.20;78.10;;;;;;5072323;28;20226;-80
2021/05/08 02:07:46;;;;;;;9.02;8.13;;;5.10;78.30;;;;;;5092262;28;20314;-79
2021/05/08 02:10:15;;;;;;;7.90;7.10;;;5.20;78.70;;;;;;5075807;28;20227;-79
2021/05/08 02:12:43;;;;;;;10.38;9.27;;;5.10;78.30;;;;;;5086610;28;20215;-80
2021/05/08 02:15:16;;;;;;;9.65;8.30;;;5.20;78.50;;;;;;5078573;28;20238;-80
2021/05/08 02:17:47;;;;;;;9.45;8.55;;;5.30;78.20;;;;;;5084649;28;20199;-79
2021/05/08 02:20:16;;;;;;;12.52;8.82;;;5.20;78.00;;;;;;5071545;28;20199;-79
2021/05/08 02:22:44;;;;;;;9.90;8.30;;;5.20;79.50;;;;;;5084622;28;20207;-79
2021/05/08 02:25:12;;;;;;;9.25;8.27;;;5.20;79.30;;;;;;5078940;28;20191;-79
2021/05/08 02:27:39;;;;;;;9.75;7.68;;;5.10;78.80;;;;;;5090995;28;20185;-79
2021/05/08 02:30:07;;;;;;;10.52;9.45;;;5.00;78.80;;;;;;5084611;28;20719;-79
2021/05/08 02:32:35;;;;;;;8.63;7.82;;;5.00;78.90;;;;;;5093892;28;20338;-79
2021/05/08 02:35:01;;;;;;;9.10;8.23;;;4.90;79.20;;;;;;5076785;28;20195;-79
2021/05/08 02:37:28;;;;;;;10.57;7.70;;;4.80;79.20;;;;;;5073432;28;20195;-79
2021/05/08 02:39:54;;;;;;;11.10;8.07;;;4.80;79.70;;;;;;5087484;28;20191;-79
2021/05/08 02:42:21;;;;;;;8.88;7.55;;;4.80;80.00;;;;;;5079927;28;20200;-79
2021/05/08 02:44:47;;;;;;;9.38;8.40;;;4.80;80.30;;;;;;5079654;28;20203;-79
2021/05/08 02:47:19;;;;;;;8.15;7.35;;;4.90;82.10;;;;;;5073091;28;20203;-79
2021/05/08 02:49:47;;;;;;;11.00;8.63;;;4.90;81.80;;;;;;5084301;28;20218;-79
2021/05/08 02:52:14;;;;;;;12.75;8.25;;;4.80;80.50;;;;;;5077156;28;20668;-79
2021/05/08 02:54:40;;;;;;;10.93;9.40;;;4.70;80.50;;;;;;5073846;28;20230;-79
2021/05/08 02:57:07;;;;;;;7.97;7.18;;;4.70;80.40;;;;;;5072436;28;20202;-80
2021/05/08 02:59:33;;;;;;;7.43;6.72;;;4.60;80.60;;;;;;5074282;28;20195;-79
2021/05/08 03:02:00;;;;;;;9.38;7.50;;;4.60;81.30;;;;;;5072964;28;20664;-79
2021/05/08 03:04:27;;;;;;;8.00;7.30;;;4.50;82.40;;;;;;5086049;28;20236;-80
2021/05/08 03:06:54;;;;;;;10.32;7.90;;;4.60;83.10;;;;;;5090988;28;20594;-79
2021/05/08 03:09:21;;;;;;;8.70;7.25;;;4.60;81.60;;;;;;5087753;28;20218;-79
2021/05/08 03:11:47;;;;;;;9.15;8.07;;;4.60;81.20;;;;;;5092363;28;20202;-79
2021/05/08 03:14:14;;;;;;;7.47;6.82;;;4.70;82.00;;;;;;5077617;28;20195;-79
2021/05/08 03:16:41;;;;;;;7.85;7.07;;;4.60;80.70;;;;;;5072582;28;20249;-78
2021/05/08 03:19:08;;;;;;;9.25;7.55;;;4.50;80.50;;;;;;5066114;28;20221;-78
2021/05/08 03:21:36;;;;;;;8.30;7.50;;;4.40;80.50;;;;;;5092401;28;20194;-79
2021/05/08 03:24:05;;;;;;;8.63;7.88;;;4.40;82.80;;;;;;5083251;28;20521;-78
2021/05/08 03:26:32;;;;;;;11.73;9.13;;;4.30;82.40;;;;;;5081075;28;20290;-79
2021/05/08 03:28:59;;;;;;;11.85;8.55;;;4.20;83.60;;;;;;5070872;28;20215;-78
2021/05/08 03:31:25;;;;;;;8.18;7.38;;;4.10;82.70;;;;;;5071929;28;20535;-79
2021/05/08 03:33:52;;;;;;;9.02;8.05;;;4.20;82.30;;;;;;5073002;28;20285;-79
2021/05/08 03:36:19;;;;;;;8.48;7.32;;;4.10;81.80;;;;;;5086943;28;20199;-78
2021/05/08 03:38:47;;;;;;;9.80;8.80;;;4.10;83.50;;;;;;5084188;28;20306;-78
2021/05/08 03:41:15;;;;;;;9.95;8.25;;;3.90;84.20;;;;;;5091789;28;20680;-79
2021/05/08 03:43:42;;;;;;;9.45;6.95;;;3.70;85.30;;;;;;5088201;28;20692;-79
2021/05/08 03:46:09;;;;;;;9.02;8.15;;;3.80;85.10;;;;;;5092321;28;20278;-78
2021/05/08 03:48:37;;;;;;;9.63;8.27;;;4.00;84.10;;;;;;5083696;28;20214;-78
2021/05/08 03:51:04;;;;;;;8.75;7.85;;;4.10;83.50;;;;;;5090416;28;20286;-78
2021/05/08 03:53:31;;;;;;;8.68;7.88;;;4.30;84.50;;;;;;5075048;28;20202;-78
2021/05/08 03:55:59;;;;;;;8.95;8.00;;;4.30;84.70;;;;;;5091242;28;20720;-78
2021/05/08 03:58:28;;;;;;;9.50;7.45;;;4.30;83.10;;;;;;5068193;28;20198;-78
2021/05/08 04:00:56;;;;;;;8.60;7.60;;;4.20;83.20;;;;;;5071967;28;20192;-78
2021/05/08 04:03:23;;;;;;;16.80;7.63;;;4.10;82.50;;;;;;5072784;28;20675;-78
2021/05/08 04:05:50;;;;;;;8.55;7.43;;;4.00;82.60;;;;;;5070856;28;20267;-78
2021/05/08 04:08:18;;;;;;;7.30;6.60;;;4.10;83.20;;;;;;5072302;28;20203;-78
2021/05/08 04:10:46;;;;;;;9.20;7.65;;;4.10;82.90;;;;;;5070566;28;20184;-78
2021/05/08 04:13:12;;;;;;;10.77;7.78;;;4.10;82.90;;;;;;5071696;28;20645;-79
2021/05/08 04:15:40;;;;;;;8.73;7.78;;;4.20;83.30;;;;;;5068012;28;20561;-79
2021/05/08 04:18:06;;;;;;;10.68;7.80;;;4.30;83.60;;;;;;5070914;28;20195;-78
2021/05/08 04:20:33;;;;;;;9.52;8.60;;;4.40;83.10;;;;;;5068857;28;20241;-78
2021/05/08 04:23:00;;;;;;;9.82;7.75;;;4.50;82.60;;;;;;5068380;28;20192;-79
2021/05/08 04:25:27;;;;;;;12.07;7.82;;;4.50;82.50;;;;;;5072713;28;20192;-79
2021/05/08 04:27:54;;;;;;;8.57;7.63;;;4.50;82.40;;;;;;5070869;28;20191;-79
2021/05/08 04:30:21;;;;;;;9.55;7.68;;;4.50;82.30;;;;;;5073570;28;20630;-78
2021/05/08 04:32:48;;;;;;;9.30;8.30;;;4.60;82.10;;;;;;5070271;28;20196;-78
2021/05/08 04:35:16;;;;;;;9.18;8.27;;;4.70;81.90;;;;;;5069903;28;20191;-79
2021/05/08 04:37:42;;;;;;;8.65;7.88;;;4.80;81.60;;;;;;5070436;28;20188;-78
2021/05/08 04:40:10;;;;;;;8.68;7.78;;;4.80;81.10;;;;;;5071157;28;20187;-78
2021/05/08 04:42:36;;;;;;;9.15;8.10;;;4.80;81.50;;;;;;5070016;28;20245;-78
2021/05/08 04:45:03;;;;;;;8.57;7.63;;;4.90;81.10;;;;;;5072439;28;20669;-78
2021/05/08 04:47:30;;;;;;;11.45;7.80;;;4.90;81.20;;;;;;5069942;28;20206;-78
2021/05/08 04:49:59;;;;;;;9.65;8.20;;;4.80;81.20;;;;;;5070576;28;20214;-78
2021/05/08 04:52:26;;;;;;;9.80;8.07;;;4.90;81.30;;;;;;5079725;28;20202;-78
2021/05/08 04:54:53;;;;;;;9.77;7.97;;;5.10;80.80;;;;;;5084798;28;20219;-78
2021/05/08 04:57:19;;;;;;;8.65;6.93;;;5.20;80.20;;;;;;5083594;28;20870;-79
2021/05/08 04:59:45;;;;;;;12.05;8.13;;;5.20;80.00;;;;;;5077980;28;20191;-78
2021/05/08 05:02:12;;;;;;;9.73;7.40;;;5.20;79.80;;;;;;5080405;28;20562;-78
2021/05/08 05:04:38;;;;;;;8.23;7.07;;;5.40;80.00;;;;;;5088206;28;20591;-78
2021/05/08 05:07:05;;;;;;;7.50;5.95;;;5.50;78.90;;;;;;5071107;28;20195;-79
2021/05/08 05:09:33;;;;;;;7.85;6.30;;;5.70;78.30;;;;;;5079215;28;20652;-78
2021/05/08 05:11:59;;;;;;;8.82;7.22;;;5.80;78.00;;;;;;5090295;28;20203;-78
2021/05/08 05:14:27;;;;;;;7.55;6.85;;;5.90;78.10;;;;;;5088017;28;20194;-79
2021/05/08 05:16:53;;;;;;;7.40;6.75;;;6.00;76.80;;;;;;5090099;28;20283;-79
2021/05/08 05:19:20;;;;;;;7.68;6.97;;;6.00;76.60;;;;;;5086569;28;20920;-78
2021/05/08 05:21:46;;;;;;;9.45;8.00;;;6.00;76.60;;;;;;5090644;28;20201;-78
2021/05/08 05:24:14;;;;;;;7.70;6.00;;;6.10;76.40;;;;;;5088254;28;20230;-78
2021/05/08 05:26:40;;;;;;;6.43;5.82;;;6.20;76.40;;;;;;5079654;28;20183;-79
2021/05/08 05:29:09;;;;;;;6.57;5.85;;;6.30;76.20;;;;;;5069330;28;20263;-79
2021/05/08 05:31:36;;;;;;;7.10;6.50;;;6.50;75.90;;;;;;5078195;28;20272;-79
2021/05/08 05:34:03;;;;;;;7.75;6.70;;;6.60;75.90;;;;;;5081662;28;20195;-78
2021/05/08 05:36:30;;;;;;;7.30;6.57;;;6.80;75.60;;;;;;5085394;28;20217;-78
2021/05/08 05:38:56;;;;;;;6.05;5.55;;;6.90;75.20;;;;;;5078930;28;20206;-79
2021/05/08 05:41:23;;;;;;;9.00;5.95;;;7.10;74.30;;;;;;5073002;28;20191;-79
2021/05/08 05:43:50;;;;;;;6.53;5.93;;;7.10;73.10;;;;;;5079005;28;20199;-79
2021/05/08 05:46:16;;;;;;;7.10;6.43;;;7.20;72.00;;;;;;5077602;28;20188;-79
2021/05/08 05:48:43;;;;;;;6.47;5.15;;;7.20;71.70;;;;;;5072667;28;20227;-79
2021/05/08 05:51:09;;;;;;;8.82;5.93;;;7.30;71.60;;;;;;5077759;28;20555;-79
2021/05/08 05:53:36;;;;;;;7.47;6.25;;;7.40;70.90;;;;;;5085710;28;20198;-79
2021/05/08 05:56:02;;;;;;;6.40;5.20;;;7.50;71.00;;;;;;5088803;28;20230;-79
2021/05/08 05:58:30;;;;;;;7.03;5.80;;;7.70;71.80;;;;;;5085410;28;20187;-79
2021/05/08 06:00:56;;;;;;;6.35;5.07;;;7.80;71.30;;;;;;5086266;28;20197;-79
2021/05/08 06:03:24;;;;;;;5.78;5.28;;;7.90;71.20;;;;;;5076841;28;20275;-79
2021/05/08 06:05:50;;;;;;;5.85;5.35;;;7.90;70.10;;;;;;5087790;28;20198;-79
2021/05/08 06:08:16;;;;;;;6.00;5.25;;;7.90;69.50;;;;;;5085505;28;20617;-78
2021/05/08 06:10:43;;;;;;;6.38;5.10;;;7.70;67.60;;;;;;5088120;28;20668;-79
2021/05/08 06:13:09;;;;;;;6.07;4.70;;;7.80;66.60;;;;;;5083764;28;20233;-78
2021/05/08 06:15:36;;;;;;;7.88;4.63;;;7.90;67.10;;;;;;5068544;28;20230;-80
2021/05/08 06:18:03;;;;;;;9.27;5.00;;;8.00;68.20;;;;;;5069926;28;20215;-79
2021/05/08 06:20:29;;;;;;;6.07;5.50;;;8.10;68.30;;;;;;5068900;28;20211;-79
2021/05/08 06:22:57;;;;;;;5.50;4.90;;;8.30;68.20;;;;;;5068778;28;20191;-79
2021/05/08 06:25:23;;;;;;;6.60;4.85;;;8.40;66.60;;;;;;5070505;28;20188;-79
2021/05/08 06:27:50;;;;;;;6.50;5.25;;;8.20;65.30;;;;;;5068853;28;21778;-79
2021/05/08 06:30:16;;;;;;;5.53;4.82;;;8.20;67.20;;;;;;5063313;28;20237;-79
2021/05/08 06:32:44;;;;;;;7.50;5.43;;;8.40;67.70;;;;;;5068329;28;20211;-79
2021/05/08 06:35:11;;;;;;;8.10;4.90;;;8.60;67.30;;;;;;5060693;28;20199;-79
2021/05/08 06:37:38;;;;;;;6.47;5.00;;;8.60;67.40;;;;;;5069929;28;20206;-79
2021/05/08 06:40:06;;;;;;;6.18;5.57;;;8.80;68.10;;;;;;5071759;28;20203;-79
2021/05/08 06:42:32;;;;;;;5.30;4.85;;;9.00;67.30;;;;;;5072270;28;20202;-79
2021/05/08 06:44:59;;;;;;;6.70;6.10;;;8.90;64.60;;;;;;5072441;28;20771;-79
2021/05/08 06:47:28;;;;;;;6.57;5.50;;;8.90;65.10;;;;;;5073101;28;20352;-80
2021/05/08 06:49:55;;;;;;;5.28;4.80;;;9.20;64.70;;;;;;5071516;28;20207;-79
2021/05/08 06:52:22;;;;;;;6.53;4.85;;;9.20;64.20;;;;;;5072729;28;20230;-80
2021/05/08 06:54:48;;;;;;;6.97;5.53;;;9.30;64.70;;;;;;5071893;28;20191;-80
2021/05/08 06:57:15;;;;;;;5.90;5.13;;;9.40;64.30;;;;;;5071099;28;20280;-79
2021/05/08 06:59:43;;;;;;;5.40;4.90;;;9.60;64.10;;;;;;5071261;28;20207;-79
2021/05/08 07:02:10;;;;;;;5.68;5.18;;;9.70;64.50;;;;;;5072937;28;20207;-79
2021/05/08 07:04:36;;;;;;;8.55;4.93;;;9.90;63.30;;;;;;5088453;28;20215;-80
2021/05/08 07:07:03;;;;;;;5.80;5.30;;;9.90;62.90;;;;;;5092947;28;20226;-79
2021/05/08 07:10:06;;;;;;;6.10;5.50;;;10.10;61.10;;;;;;5079861;28;20215;-79
2021/05/08 07:12:46;;;;;;;5.65;5.15;;;10.10;61.40;;;;;;5057094;28;20784;-79
2021/05/08 07:15:13;;;;;;;5.18;4.68;;;10.30;60.90;;;;;;5088452;28;20190;-79
2021/05/08 07:17:40;;;;;;;4.82;4.43;;;10.20;60.90;;;;;;5079418;28;20215;-78
2021/05/08 07:20:08;;;;;;;5.10;4.60;;;10.30;61.10;;;;;;5089638;28;20531;-78
2021/05/08 07:22:35;;;;;;;6.40;5.15;;;10.50;62.30;;;;;;5076735;28;20199;-78
2021/05/08 07:25:02;;;;;;;5.82;5.32;;;10.70;61.40;;;;;;5087792;28;20201;-79
2021/05/08 07:27:28;;;;;;;5.87;5.17;;;10.90;59.90;;;;;;5075618;28;20843;-78
2021/05/08 07:29:54;;;;;;;9.82;5.35;;;11.00;60.60;;;;;;5083068;28;20672;-78
2021/05/08 07:32:21;;;;;;;6.00;5.00;;;11.30;61.10;;;;;;5088807;28;20187;-78
2021/05/08 07:34:47;;;;;;;5.40;4.60;;;11.50;59.10;;;;;;5071554;28;21020;-78
2021/05/08 07:37:14;;;;;;;5.53;5.00;;;11.50;58.50;;;;;;5073829;28;21215;-79
2021/05/08 07:39:42;;;;;;;5.40;4.30;;;11.60;59.00;;;;;;5074094;28;20628;-79
2021/05/08 07:42:08;;;;;;;4.50;4.10;;;11.70;58.40;;;;;;5072480;28;20617;-79
2021/05/08 07:44:35;;;;;;;5.30;4.80;;;11.80;58.70;;;;;;5074211;28;20631;-79
2021/05/08 07:47:01;;;;;;;6.23;4.43;;;11.90;57.90;;;;;;5070756;28;20622;-78
2021/05/08 07:49:27;;;;;;;4.83;4.37;;;12.00;58.40;;;;;;5074428;28;20767;-78
2021/05/08 07:51:54;;;;;;;4.77;4.37;;;11.80;58.70;;;;;;5070691;28;20972;-79
2021/05/08 07:54:20;;;;;;;4.77;4.20;;;12.00;59.30;;;;;;5071338;28;20625;-79
2021/05/08 07:56:47;;;;;;;4.40;4.00;;;12.20;58.70;;;;;;5079606;28;20643;-79
2021/05/08 07:59:14;;;;;;;4.00;3.70;;;12.30;58.70;;;;;;5076213;28;20629;-78
2021/05/08 08:01:40;;;;;;;5.83;4.70;;;12.50;58.90;;;;;;5074765;28;21078;-79
2021/05/08 08:04:06;;;;;;;4.10;3.70;;;12.40;59.20;;;;;;5084404;28;20978;-78
2021/05/08 08:06:33;;;;;;;3.90;3.60;;;12.30;57.60;;;;;;5076202;28;20621;-79
2021/05/08 08:08:59;;;;;;;4.33;3.97;;;12.50;59.00;;;;;;5083129;28;21288;-78
2021/05/08 08:11:26;;;;;;;4.17;3.80;;;12.80;59.70;;;;;;5073894;28;20617;-79
2021/05/08 08:13:53;;;;;;;4.37;3.97;;;12.90;58.30;;;;;;5073403;28;21178;-78
2021/05/08 08:16:19;;;;;;;5.00;3.83;;;13.00;58.20;;;;;;5074926;28;20621;-81
2021/05/08 08:18:46;;;;;;;4.50;4.17;;;13.00;56.30;;;;;;5080683;28;20652;-79
2021/05/08 08:21:12;;;;;;;4.87;4.37;;;12.90;56.60;;;;;;5089581;28;20616;-81
2021/05/08 08:23:39;;;;;;;4.13;3.73;;;13.10;58.30;;;;;;5086559;28;21177;-81
2021/05/08 08:26:05;;;;;;;5.03;4.00;;;13.30;57.80;;;;;;5085122;28;20755;-79
2021/05/08 08:28:31;;;;;;;3.20;3.00;;;13.50;57.70;;;;;;5077663;28;20630;-80
2021/05/08 08:30:59;;;;;;;3.40;3.10;;;13.20;56.00;;;;;;5089540;28;20691;-80
2021/05/08 08:33:25;;;;;;;2.90;2.70;;;13.50;56.20;;;;;;5079125;28;20642;-81
2021/05/08 08:35:54;;;;;;;4.07;3.67;;;13.60;55.80;;;;;;5089014;28;20630;-80
2021/05/08 08:38:20;;;;;;;3.10;2.80;;;13.80;55.40;;;;;;5089761;28;20655;-80
2021/05/08 08:40:47;;;;;;;3.17;2.97;;;14.00;55.20;;;;;;5087250;28;20637;-80
2021/05/08 08:43:14;;;;;;;3.70;3.40;;;14.10;55.30;;;;;;5078429;28;20635;-81
2021/05/08 08:45:41;;;;;;;4.37;3.97;;;14.30;55.80;;;;;;5057184;28;20631;-81
2021/05/08 08:48:08;;;;;;;2.90;2.70;;;14.60;54.50;;;;;;5085891;28;21082;-81
2021/05/08 08:50:36;;;;;;;5.23;2.53;;;14.60;52.20;;;;;;5086196;28;20706;-80
2021/05/08 08:53:04;;;;;;;2.67;2.47;;;14.70;53.00;;;;;;5079499;28;21019;-80
2021/05/08 08:55:33;;;;;;;2.20;2.00;;;14.60;52.70;;;;;;5087371;28;20683;-80
2021/05/08 08:58:03;;;;;;;2.17;1.67;;;14.70;50.70;;;;;;5071784;28;20664;-81
2021/05/08 09:00:30;;;;;;;2.77;2.00;;;15.00;49.60;;;;;;5078037;28;21200;-80
2021/05/08 09:02:56;;;;;;;2.10;1.90;;;14.90;48.60;;;;;;5070330;28;20693;-81
2021/05/08 09:05:25;;;;;;;2.47;2.27;;;15.10;50.30;;;;;;5071321;28;20639;-81
2021/05/08 09:07:53;;;;;;;2.10;2.00;;;15.30;49.40;;;;;;5073290;28;20641;-81
2021/05/08 09:10:23;;;;;;;2.33;2.13;;;15.80;49.40;;;;;;5070882;28;20665;-82
2021/05/08 09:12:51;;;;;;;2.40;2.20;;;15.90;48.50;;;;;;5075982;28;20616;-81
2021/05/08 09:15:45;;;;;;;3.00;2.53;;;15.80;47.70;;;;;;5067444;28;21295;-82
2021/05/08 09:18:35;;;;;;;3.60;2.30;;;16.10;48.20;;;;;;5067014;28;21211;-81
2021/05/08 09:21:37;;;;;;;2.70;2.40;;;16.50;47.70;;;;;;5069926;28;20725;-81
2021/05/08 09:24:07;;;;;;;2.00;1.90;;;16.60;47.30;;;;;;5082283;28;20632;-81
2021/05/08 09:26:38;;;;;;;2.10;1.90;;;16.50;46.50;;;;;;5084129;28;20652;-80
2021/05/08 09:29:17;;;;;;;2.20;2.00;;;16.20;47.10;;;;;;5078230;28;21275;-81
2021/05/08 09:31:52;;;;;;;2.33;2.13;;;16.00;46.30;;;;;;5090033;28;20627;-80
2021/05/08 09:34:19;;;;;;;4.37;2.23;;;16.10;47.80;;;;;;5071639;28;20665;-81
2021/05/08 09:36:53;;;;;;;1.97;1.87;;;16.30;47.50;;;;;;5077843;28;21096;-81
2021/05/08 09:39:30;;;;;;;2.03;1.93;;;16.70;46.80;;;;;;5088054;28;21241;-80
2021/05/08 09:41:57;;;;;;;2.00;1.90;;;16.90;46.90;;;;;;5089106;28;20632;-80
2021/05/08 09:44:23;;;;;;;1.90;1.80;;;17.10;46.20;;;;;;5089466;28;20628;-81
2021/05/08 09:46:51;;;;;;;2.27;2.13;;;17.10;46.20;;;;;;5081912;28;21167;-81
2021/05/08 09:49:20;;;;;;;2.03;1.93;;;17.10;45.00;;;;;;5070278;28;20649;-81
2021/05/08 09:51:58;;;;;;;2.20;1.67;;;17.00;45.20;;;;;;5084320;28;20629;-80
2021/05/08 09:54:25;;;;;;;1.90;1.80;;;16.90;43.70;;;;;;5076825;28;21181;-80
2021/05/08 09:56:51;;;;;;;1.97;1.70;;;16.60;44.60;;;;;;5079810;28;20967;-81
2021/05/08 09:59:22;;;;;;;1.97;1.87;;;16.60;45.60;;;;;;5071618;28;20752;-81
2021/05/08 10:02:04;;;;;;;2.53;1.90;;;16.80;45.10;;;;;;5072720;28;20648;-82
2021/05/08 10:04:32;;;;;;;1.90;1.77;;;17.10;44.60;;;;;;5078257;28;20633;-82
2021/05/08 10:07:07;;;;;;;1.80;1.70;;;17.00;43.40;;;;;;5079552;28;20657;-81
2021/05/08 10:09:34;;;;;;;1.80;1.70;;;17.00;43.50;;;;;;5074033;28;20656;-80
2021/05/08 10:12:03;;;;;;;1.73;1.63;;;16.90;44.10;;;;;;5089644;28;20621;-81
2021/05/08 10:14:31;;;;;;;1.90;1.80;;;16.60;44.50;;;;;;5078419;28;20976;-80
2021/05/08 10:16:58;;;;;;;1.90;1.80;;;16.40;43.70;;;;;;5081913;28;20612;-81
2021/05/08 10:19:25;;;;;;;1.40;1.23;;;16.70;44.20;;;;;;5090387;28;20631;-80
2021/05/08 10:21:52;;;;;;;1.83;1.73;;;17.00;45.10;;;;;;5074075;28;20617;-81
2021/05/08 10:24:25;;;;;;;1.73;1.63;;;17.40;44.50;;;;;;5073941;28;20976;-82
2021/05/08 10:26:57;;;;;;;1.77;1.67;;;17.70;44.30;;;;;;5072233;28;20621;-80
2021/05/08 10:29:38;;;;;;;1.87;1.70;;;17.80;45.60;;;;;;5073279;28;20667;-81
2021/05/08 10:32:07;;;;;;;1.60;1.50;;;18.00;44.10;;;;;;5076871;28;20630;-80
2021/05/08 10:34:37;;;;;;;1.70;1.60;;;17.80;40.80;;;;;;5073392;28;20653;-81
2021/05/08 10:37:08;;;;;;;1.43;1.40;;;17.80;44.00;;;;;;5082191;28;20734;-80
2021/05/08 10:40:01;;;;;;;2.77;2.10;;;17.60;41.80;;;;;;5088216;28;20645;-81
2021/05/08 10:42:35;;;;;;;1.53;1.43;;;17.90;43.80;;;;;;5067597;28;20694;-83
2021/05/08 10:45:03;;;;;;;1.80;1.50;;;18.00;43.00;;;;;;5083005;28;20733;-83
2021/05/08 10:48:04;;;;;;;1.73;1.63;;;18.20;42.20;;;;;;5083465;28;21246;-82
2021/05/08 10:50:37;;;;;;;1.67;1.57;;;18.50;42.10;;;;;;5083894;28;21161;-82
2021/05/08 10:53:06;;;;;;;1.37;1.27;;;18.70;42.30;;;;;;5087245;28;21255;-81
2021/05/08 10:55:50;;;;;;;2.23;1.60;;;19.10;43.60;;;;;;5078480;28;20621;-81
2021/05/08 10:58:27;;;;;;;1.77;1.67;;;19.40;41.70;;;;;;5083625;28;20730;-81
2021/05/08 11:00:56;;;;;;;1.80;1.70;;;19.10;38.70;;;;;;5080309;28;20634;-80
2021/05/08 11:03:25;;;;;;;1.80;1.67;;;18.50;38.10;;;;;;5082120;28;20626;-81
2021/05/08 11:05:53;;;;;;;1.80;1.60;;;18.90;40.60;;;;;;5083784;28;21022;-81
2021/05/08 11:08:48;;;;;;;1.70;1.60;;;18.50;38.80;;;;;;5088012;28;20979;-81
2021/05/08 11:11:22;;;;;;;3.20;2.20;;;19.20;38.40;;;;;;5081557;28;20662;-81
2021/05/08 11:14:00;;;;;;;1.77;1.67;;;19.80;38.30;;;;;;5084812;28;21036;-81
2021/05/08 11:16:28;;;;;;;1.53;1.40;;;20.20;39.10;;;;;;5062230;28;20615;-81
2021/05/08 11:18:56;;;;;;;1.80;1.70;;;20.60;40.40;;;;;;5076874;28;21158;-81
2021/05/08 11:21:42;;;;;;;2.80;1.97;;;20.60;37.60;;;;;;5088529;28;21148;-80
2021/05/08 11:24:11;;;;;;;1.77;1.67;;;21.00;38.60;;;;;;5079092;28;20621;-81
2021/05/08 11:26:45;;;;;;;2.90;1.57;;;21.50;37.00;;;;;;5088394;28;20613;-81
2021/05/08 11:29:18;;;;;;;5.33;2.07;;;21.50;36.60;;;;;;5076380;28;20739;-81
2021/05/08 11:31:46;;;;;;;2.07;1.70;;;21.60;36.20;;;;;;5068100;28;20723;-81
2021/05/08 11:34:15;;;;;;;1.77;1.67;;;21.10;36.60;;;;;;5071490;28;21522;-80
2021/05/08 11:36:43;;;;;;;2.20;2.00;;;20.30;35.60;;;;;;5081631;28;20663;-81
2021/05/08 11:39:11;;;;;;;2.13;2.03;;;20.20;36.30;;;;;;5090416;28;20766;-80
2021/05/08 11:41:38;;;;;;;2.65;1.77;;;20.30;37.20;;;;;;5082132;28;20767;-81
2021/05/08 11:44:06;;;;;;;4.80;2.00;;;21.50;37.80;;;;;;5075370;28;20210;-81
2021/05/08 11:46:33;;;;;;;2.90;2.07;;;21.70;37.20;;;;;;5084299;28;20639;-80
2021/05/08 11:49:01;;;;;;;1.60;1.50;;;21.00;36.50;;;;;;5085662;28;20713;-81
2021/05/08 11:51:28;;;;;;;1.77;1.67;;;19.80;37.30;;;;;;5063196;28;21027;-81
2021/05/08 11:54:08;;;;;;;2.13;2.03;;;19.80;39.80;;;;;;5076363;28;20626;-81
2021/05/08 11:56:35;;;;;;;2.30;2.20;;;20.10;39.40;;;;;;5078782;28;21024;-81
2021/05/08 11:59:02;;;;;;;3.10;1.83;;;20.30;39.10;;;;;;5069539;28;20618;-80
2021/05/08 12:01:30;;;;;;;1.93;1.83;;;20.40;37.70;;;;;;5077422;28;20968;-80
2021/05/08 12:03:58;;;;;;;3.50;1.93;;;20.10;37.60;;;;;;5077673;28;20621;-81
2021/05/08 12:06:25;;;;;;;2.00;1.90;;;19.70;38.90;;;;;;5076641;28;20616;-81
2021/05/08 12:08:52;;;;;;;1.97;1.80;;;19.80;38.50;;;;;;5087211;28;20625;-81
2021/05/08 12:11:19;;;;;;;2.40;1.97;;;21.80;39.00;;;;;;5090149;28;20710;-81
2021/05/08 12:13:46;;;;;;;2.00;1.90;;;23.50;37.90;;;;;;5081085;28;20611;-81
2021/05/08 12:16:12;;;;;;;2.10;2.00;;;23.80;35.00;;;;;;5070913;28;21168;-81
2021/05/08 12:18:41;;;;;;;1.83;1.73;;;24.00;36.70;;;;;;5072509;28;20621;-81
2021/05/08 12:21:11;;;;;;;3.43;1.97;;;24.20;36.00;;;;;;5070962;28;20656;-81
2021/05/08 12:23:38;;;;;;;2.00;1.87;;;23.00;34.20;;;;;;5071827;28;20628;-81
2021/05/08 12:26:14;;;;;;;1.73;1.63;;;22.60;35.20;;;;;;5070519;28;20635;-81
2021/05/08 12:28:41;;;;;;;2.10;1.33;;;22.70;35.10;;;;;;5077001;28;20638;-81
2021/05/08 12:31:22;;;;;;;2.00;1.80;;;22.70;37.00;;;;;;5078115;28;21270;-82
2021/05/08 12:33:50;;;;;;;1.77;1.60;;;22.50;37.20;;;;;;5083734;28;20746;-81
2021/05/08 12:36:19;;;;;;;2.00;1.80;;;21.20;35.10;;;;;;5070673;28;20632;-81
2021/05/08 12:39:19;;;;;;;2.00;1.90;;;20.50;37.30;;;;;;5074452;28;21236;-81
2021/05/08 12:41:51;;;;;;;1.60;1.50;;;19.80;37.80;;;;;;5090759;28;20937;-80
2021/05/08 12:44:17;;;;;;;1.47;1.37;;;19.50;37.00;;;;;;5087339;28;20624;-81
2021/05/08 12:46:59;;;;;;;1.80;1.70;;;19.70;39.20;;;;;;5090427;28;20635;-81
2021/05/08 12:49:28;;;;;;;1.73;1.63;;;19.80;40.80;;;;;;5084999;28;20652;-81
2021/05/08 12:51:55;;;;;;;2.03;1.90;;;19.50;39.00;;;;;;5078767;28;21196;-81
2021/05/08 12:54:24;;;;;;;2.10;1.57;;;19.50;39.20;;;;;;5086585;28;20625;-81
2021/05/08 12:56:51;;;;;;;1.73;1.63;;;19.20;38.60;;;;;;5079424;28;20675;-81
2021/05/08 12:59:27;;;;;;;1.97;1.77;;;19.20;39.10;;;;;;5079849;28;20616;-81